sensor_id;sensor_type;location;lat;lon;timestamp;P1;durP1;ratioP1;P2;durP2;ratioP2
60336;SDS011;46978;50.288;28.624;2023-11-21T00:01:01;31.98;;;19.58;;
60336;SDS011;46978;50.288;28.624;2023-11-21T00:02:03;32.16;;;17.15;;
60336;SDS011;46978;50.288;28.624;2023-11-21T00:03:05;33.50;;;18.44;;
60336;SDS011;46978;50.288;28.624;2023-11-21T00:04:06;29.66;;;17.41;;
60336;SDS011;46978;50.288;28.624;2023-11-21T00:05:08;27.06;;;15.66;;
60336;SDS011;46978;50.288;28.624;2023-11-21T00:06:12;31.38;;;17.49;;
60336;SDS011;46978;50.288;28.624;2023-11-21T00:07:14;30.06;;;17.19;;
60336;SDS011;46978;50.288;28.624;2023-11-21T00:08:16;25.03;;;14.53;;
60336;SDS011;46978;50.288;28.624;2023-11-21T00:09:18;26.74;;;14.77;;
60336;SDS011;46978;50.288;28.624;2023-11-21T00:10:20;27.01;;;15.57;;
60336;SDS011;46978;50.288;28.624;2023-11-21T00:13:18;28.10;;;15.86;;
60336;SDS011;46978;50.288;28.624;2023-11-21T00:14:20;30.20;;;17.00;;
60336;SDS011;46978;50.288;28.624;2023-11-21T00:15:22;28.72;;;17.04;;
60336;SDS011;46978;50.288;28.624;2023-11-21T00:16:23;30.53;;;17.81;;
60336;SDS011;46978;50.288;28.624;2023-11-21T00:17:25;32.71;;;17.31;;
60336;SDS011;46978;50.288;28.624;2023-11-21T00:18:26;40.60;;;20.41;;
60336;SDS011;46978;50.288;28.624;2023-11-21T00:19:28;42.96;;;19.81;;
60336;SDS011;46978;50.288;28.624;2023-11-21T00:20:29;33.08;;;16.96;;
60336;SDS011;46978;50.288;28.624;2023-11-21T00:21:31;33.24;;;16.77;;
60336;SDS011;46978;50.288;28.624;2023-11-21T00:22:37;27.35;;;15.14;;
60336;SDS011;46978;50.288;28.624;2023-11-21T00:23:37;23.39;;;14.71;;
60336;SDS011;46978;50.288;28.624;2023-11-21T00:24:38;27.42;;;14.65;;
60336;SDS011;46978;50.288;28.624;2023-11-21T00:25:40;27.19;;;15.91;;
60336;SDS011;46978;50.288;28.624;2023-11-21T00:26:41;23.83;;;13.50;;
60336;SDS011;46978;50.288;28.624;2023-11-21T00:27:43;23.05;;;13.37;;
60336;SDS011;46978;50.288;28.624;2023-11-21T00:28:44;23.55;;;14.23;;
60336;SDS011;46978;50.288;28.624;2023-11-21T00:29:46;22.57;;;13.72;;
60336;SDS011;46978;50.288;28.624;2023-11-21T00:30:48;24.93;;;14.11;;
60336;SDS011;46978;50.288;28.624;2023-11-21T00:31:49;23.19;;;13.99;;
60336;SDS011;46978;50.288;28.624;2023-11-21T00:32:51;25.31;;;14.85;;
60336;SDS011;46978;50.288;28.624;2023-11-21T00:33:52;25.31;;;14.06;;
60336;SDS011;46978;50.288;28.624;2023-11-21T00:34:54;25.46;;;14.48;;
60336;SDS011;46978;50.288;28.624;2023-11-21T00:35:55;22.31;;;13.53;;
60336;SDS011;46978;50.288;28.624;2023-11-21T00:36:57;20.53;;;12.44;;
60336;SDS011;46978;50.288;28.624;2023-11-21T00:37:59;22.49;;;12.93;;
60336;SDS011;46978;50.288;28.624;2023-11-21T00:39:01;22.66;;;12.78;;
60336;SDS011;46978;50.288;28.624;2023-11-21T00:40:03;19.06;;;11.39;;
60336;SDS011;46978;50.288;28.624;2023-11-21T00:41:06;20.78;;;12.23;;
60336;SDS011;46978;50.288;28.624;2023-11-21T00:42:08;22.72;;;12.97;;
60336;SDS011;46978;50.288;28.624;2023-11-21T00:43:10;21.37;;;12.97;;
60336;SDS011;46978;50.288;28.624;2023-11-21T00:44:12;22.91;;;13.29;;
60336;SDS011;46978;50.288;28.624;2023-11-21T00:45:13;18.78;;;11.44;;
60336;SDS011;46978;50.288;28.624;2023-11-21T00:46:15;23.53;;;12.95;;
60336;SDS011;46978;50.288;28.624;2023-11-21T00:47:17;23.93;;;13.89;;
60336;SDS011;46978;50.288;28.624;2023-11-21T00:48:18;21.54;;;12.84;;
60336;SDS011;46978;50.288;28.624;2023-11-21T00:49:20;25.11;;;14.10;;
60336;SDS011;46978;50.288;28.624;2023-11-21T00:50:22;25.71;;;13.66;;
60336;SDS011;46978;50.288;28.624;2023-11-21T00:51:23;25.81;;;13.79;;
60336;SDS011;46978;50.288;28.624;2023-11-21T00:52:25;24.21;;;13.74;;
60336;SDS011;46978;50.288;28.624;2023-11-21T00:53:26;25.69;;;13.71;;
60336;SDS011;46978;50.288;28.624;2023-11-21T00:54:28;25.14;;;13.44;;
60336;SDS011;46978;50.288;28.624;2023-11-21T00:55:29;24.10;;;11.66;;
60336;SDS011;46978;50.288;28.624;2023-11-21T00:56:31;21.81;;;12.34;;
60336;SDS011;46978;50.288;28.624;2023-11-21T00:57:33;20.96;;;12.29;;
60336;SDS011;46978;50.288;28.624;2023-11-21T00:58:35;24.23;;;13.68;;
60336;SDS011;46978;50.288;28.624;2023-11-21T00:59:37;29.10;;;14.49;;
60336;SDS011;46978;50.288;28.624;2023-11-21T01:00:39;22.73;;;12.74;;
60336;SDS011;46978;50.288;28.624;2023-11-21T01:01:40;25.38;;;14.46;;
60336;SDS011;46978;50.288;28.624;2023-11-21T01:02:43;22.34;;;12.70;;
60336;SDS011;46978;50.288;28.624;2023-11-21T01:03:48;24.52;;;13.77;;
60336;SDS011;46978;50.288;28.624;2023-11-21T01:04:50;28.73;;;14.71;;
60336;SDS011;46978;50.288;28.624;2023-11-21T01:05:51;29.36;;;14.07;;
60336;SDS011;46978;50.288;28.624;2023-11-21T01:06:53;24.14;;;13.37;;
60336;SDS011;46978;50.288;28.624;2023-11-21T01:07:55;23.10;;;13.26;;
60336;SDS011;46978;50.288;28.624;2023-11-21T01:08:57;27.08;;;14.24;;
60336;SDS011;46978;50.288;28.624;2023-11-21T01:09:58;24.54;;;13.31;;
60336;SDS011;46978;50.288;28.624;2023-11-21T01:11:00;22.99;;;12.72;;
60336;SDS011;46978;50.288;28.624;2023-11-21T01:12:02;22.45;;;12.70;;
60336;SDS011;46978;50.288;28.624;2023-11-21T01:13:04;23.41;;;13.35;;
60336;SDS011;46978;50.288;28.624;2023-11-21T01:14:06;20.19;;;12.59;;
60336;SDS011;46978;50.288;28.624;2023-11-21T01:15:08;23.25;;;13.00;;
60336;SDS011;46978;50.288;28.624;2023-11-21T01:16:10;24.61;;;13.13;;
60336;SDS011;46978;50.288;28.624;2023-11-21T01:17:12;24.59;;;13.16;;
60336;SDS011;46978;50.288;28.624;2023-11-21T01:18:13;22.30;;;12.17;;
60336;SDS011;46978;50.288;28.624;2023-11-21T01:19:15;21.03;;;12.85;;
60336;SDS011;46978;50.288;28.624;2023-11-21T01:20:17;22.05;;;12.41;;
60336;SDS011;46978;50.288;28.624;2023-11-21T01:21:19;20.24;;;12.27;;
60336;SDS011;46978;50.288;28.624;2023-11-21T01:22:21;22.50;;;13.29;;
60336;SDS011;46978;50.288;28.624;2023-11-21T01:23:22;20.60;;;11.93;;
60336;SDS011;46978;50.288;28.624;2023-11-21T01:24:24;20.95;;;12.10;;
60336;SDS011;46978;50.288;28.624;2023-11-21T01:25:26;23.08;;;14.53;;
60336;SDS011;46978;50.288;28.624;2023-11-21T01:26:28;21.43;;;13.53;;
60336;SDS011;46978;50.288;28.624;2023-11-21T01:27:29;19.79;;;12.91;;
60336;SDS011;46978;50.288;28.624;2023-11-21T01:28:31;21.24;;;12.10;;
60336;SDS011;46978;50.288;28.624;2023-11-21T01:29:32;22.72;;;13.18;;
60336;SDS011;46978;50.288;28.624;2023-11-21T01:30:34;22.17;;;12.87;;
60336;SDS011;46978;50.288;28.624;2023-11-21T01:31:36;21.87;;;13.40;;
60336;SDS011;46978;50.288;28.624;2023-11-21T01:32:37;20.96;;;13.10;;
60336;SDS011;46978;50.288;28.624;2023-11-21T01:33:40;22.41;;;13.59;;
60336;SDS011;46978;50.288;28.624;2023-11-21T01:34:41;24.07;;;13.08;;
60336;SDS011;46978;50.288;28.624;2023-11-21T01:35:43;22.33;;;12.13;;
60336;SDS011;46978;50.288;28.624;2023-11-21T01:36:45;22.05;;;12.96;;
60336;SDS011;46978;50.288;28.624;2023-11-21T01:37:47;22.52;;;12.81;;
60336;SDS011;46978;50.288;28.624;2023-11-21T01:38:49;21.47;;;13.09;;
60336;SDS011;46978;50.288;28.624;2023-11-21T01:39:50;21.68;;;13.67;;
60336;SDS011;46978;50.288;28.624;2023-11-21T01:40:52;22.39;;;13.84;;
60336;SDS011;46978;50.288;28.624;2023-11-21T01:41:54;23.64;;;13.27;;
60336;SDS011;46978;50.288;28.624;2023-11-21T01:42:55;23.92;;;12.37;;
60336;SDS011;46978;50.288;28.624;2023-11-21T01:43:57;24.14;;;12.28;;
60336;SDS011;46978;50.288;28.624;2023-11-21T01:44:59;21.26;;;12.52;;
60336;SDS011;46978;50.288;28.624;2023-11-21T01:46:00;22.38;;;12.64;;
60336;SDS011;46978;50.288;28.624;2023-11-21T01:47:02;24.01;;;13.89;;
60336;SDS011;46978;50.288;28.624;2023-11-21T01:48:04;20.13;;;12.18;;
60336;SDS011;46978;50.288;28.624;2023-11-21T01:49:06;24.70;;;13.58;;
60336;SDS011;46978;50.288;28.624;2023-11-21T01:50:08;34.94;;;17.18;;
60336;SDS011;46978;50.288;28.624;2023-11-21T01:51:13;28.61;;;16.04;;
60336;SDS011;46978;50.288;28.624;2023-11-21T01:52:15;26.77;;;13.85;;
60336;SDS011;46978;50.288;28.624;2023-11-21T01:53:17;34.44;;;16.21;;
60336;SDS011;46978;50.288;28.624;2023-11-21T01:54:19;34.70;;;16.21;;
60336;SDS011;46978;50.288;28.624;2023-11-21T01:55:21;32.98;;;16.70;;
60336;SDS011;46978;50.288;28.624;2023-11-21T01:56:23;25.14;;;14.00;;
60336;SDS011;46978;50.288;28.624;2023-11-21T01:57:25;29.15;;;16.03;;
60336;SDS011;46978;50.288;28.624;2023-11-21T01:58:27;22.99;;;14.56;;
60336;SDS011;46978;50.288;28.624;2023-11-21T01:59:30;23.09;;;12.98;;
60336;SDS011;46978;50.288;28.624;2023-11-21T02:00:34;19.89;;;12.65;;
60336;SDS011;46978;50.288;28.624;2023-11-21T02:01:36;21.15;;;13.82;;
60336;SDS011;46978;50.288;28.624;2023-11-21T02:02:38;23.02;;;13.21;;
60336;SDS011;46978;50.288;28.624;2023-11-21T02:03:39;18.75;;;12.55;;
60336;SDS011;46978;50.288;28.624;2023-11-21T02:04:41;21.37;;;12.86;;
60336;SDS011;46978;50.288;28.624;2023-11-21T02:05:43;22.24;;;13.33;;
60336;SDS011;46978;50.288;28.624;2023-11-21T02:06:44;20.51;;;12.15;;
60336;SDS011;46978;50.288;28.624;2023-11-21T02:07:46;22.13;;;12.66;;
60336;SDS011;46978;50.288;28.624;2023-11-21T02:08:48;18.29;;;12.23;;
60336;SDS011;46978;50.288;28.624;2023-11-21T02:09:50;20.69;;;11.94;;
60336;SDS011;46978;50.288;28.624;2023-11-21T02:10:52;25.79;;;13.26;;
60336;SDS011;46978;50.288;28.624;2023-11-21T02:11:53;18.09;;;11.83;;
60336;SDS011;46978;50.288;28.624;2023-11-21T02:12:55;17.69;;;11.56;;
60336;SDS011;46978;50.288;28.624;2023-11-21T02:13:58;19.95;;;12.12;;
60336;SDS011;46978;50.288;28.624;2023-11-21T02:15:03;20.75;;;12.01;;
60336;SDS011;46978;50.288;28.624;2023-11-21T02:16:07;21.34;;;11.73;;
60336;SDS011;46978;50.288;28.624;2023-11-21T02:17:09;20.61;;;12.23;;
60336;SDS011;46978;50.288;28.624;2023-11-21T02:18:10;17.51;;;10.47;;
60336;SDS011;46978;50.288;28.624;2023-11-21T02:19:12;21.82;;;12.05;;
60336;SDS011;46978;50.288;28.624;2023-11-21T02:20:18;22.37;;;11.31;;
60336;SDS011;46978;50.288;28.624;2023-11-21T02:21:19;18.79;;;10.86;;
60336;SDS011;46978;50.288;28.624;2023-11-21T02:22:21;19.71;;;11.65;;
60336;SDS011;46978;50.288;28.624;2023-11-21T02:23:22;19.84;;;11.35;;
60336;SDS011;46978;50.288;28.624;2023-11-21T02:24:24;18.41;;;11.54;;
60336;SDS011;46978;50.288;28.624;2023-11-21T02:25:26;23.91;;;12.54;;
60336;SDS011;46978;50.288;28.624;2023-11-21T02:26:30;22.13;;;12.80;;
60336;SDS011;46978;50.288;28.624;2023-11-21T02:27:32;21.73;;;13.25;;
60336;SDS011;46978;50.288;28.624;2023-11-21T02:28:34;19.07;;;11.97;;
60336;SDS011;46978;50.288;28.624;2023-11-21T02:29:35;18.01;;;11.39;;
60336;SDS011;46978;50.288;28.624;2023-11-21T02:30:37;22.39;;;12.09;;
60336;SDS011;46978;50.288;28.624;2023-11-21T02:31:38;19.06;;;11.84;;
60336;SDS011;46978;50.288;28.624;2023-11-21T02:32:40;20.51;;;11.03;;
60336;SDS011;46978;50.288;28.624;2023-11-21T02:33:42;18.66;;;11.67;;
60336;SDS011;46978;50.288;28.624;2023-11-21T02:34:43;19.26;;;11.19;;
60336;SDS011;46978;50.288;28.624;2023-11-21T02:35:45;18.86;;;10.48;;
60336;SDS011;46978;50.288;28.624;2023-11-21T02:36:47;19.36;;;10.39;;
60336;SDS011;46978;50.288;28.624;2023-11-21T02:37:49;15.96;;;10.22;;
60336;SDS011;46978;50.288;28.624;2023-11-21T02:38:51;17.74;;;10.52;;
60336;SDS011;46978;50.288;28.624;2023-11-21T02:39:53;17.35;;;10.43;;
60336;SDS011;46978;50.288;28.624;2023-11-21T02:40:56;19.06;;;9.87;;
60336;SDS011;46978;50.288;28.624;2023-11-21T02:41:58;17.82;;;10.40;;
60336;SDS011;46978;50.288;28.624;2023-11-21T02:43:00;17.97;;;11.71;;
60336;SDS011;46978;50.288;28.624;2023-11-21T02:44:02;20.08;;;11.26;;
60336;SDS011;46978;50.288;28.624;2023-11-21T02:45:04;21.38;;;12.21;;
60336;SDS011;46978;50.288;28.624;2023-11-21T02:46:08;19.05;;;12.13;;
60336;SDS011;46978;50.288;28.624;2023-11-21T02:47:09;19.83;;;11.37;;
60336;SDS011;46978;50.288;28.624;2023-11-21T02:48:11;18.51;;;11.92;;
60336;SDS011;46978;50.288;28.624;2023-11-21T02:49:13;21.45;;;12.49;;
60336;SDS011;46978;50.288;28.624;2023-11-21T02:50:15;20.82;;;12.39;;
60336;SDS011;46978;50.288;28.624;2023-11-21T02:51:16;17.25;;;11.21;;
60336;SDS011;46978;50.288;28.624;2023-11-21T02:52:18;21.34;;;12.33;;
60336;SDS011;46978;50.288;28.624;2023-11-21T02:53:20;21.94;;;11.35;;
60336;SDS011;46978;50.288;28.624;2023-11-21T02:54:21;19.31;;;11.60;;
60336;SDS011;46978;50.288;28.624;2023-11-21T02:55:23;20.09;;;11.83;;
60336;SDS011;46978;50.288;28.624;2023-11-21T02:56:25;20.21;;;11.59;;
60336;SDS011;46978;50.288;28.624;2023-11-21T02:57:26;20.28;;;12.31;;
60336;SDS011;46978;50.288;28.624;2023-11-21T02:58:28;18.90;;;10.99;;
60336;SDS011;46978;50.288;28.624;2023-11-21T02:59:30;20.04;;;11.36;;
60336;SDS011;46978;50.288;28.624;2023-11-21T03:00:31;24.10;;;13.88;;
60336;SDS011;46978;50.288;28.624;2023-11-21T03:01:33;18.32;;;11.64;;
60336;SDS011;46978;50.288;28.624;2023-11-21T03:02:35;19.14;;;11.64;;
60336;SDS011;46978;50.288;28.624;2023-11-21T03:03:39;21.06;;;11.45;;
60336;SDS011;46978;50.288;28.624;2023-11-21T03:04:41;17.13;;;10.66;;
60336;SDS011;46978;50.288;28.624;2023-11-21T03:05:42;20.82;;;10.07;;
60336;SDS011;46978;50.288;28.624;2023-11-21T03:06:44;19.63;;;10.48;;
60336;SDS011;46978;50.288;28.624;2023-11-21T03:07:46;17.75;;;9.62;;
60336;SDS011;46978;50.288;28.624;2023-11-21T03:08:47;15.79;;;9.88;;
60336;SDS011;46978;50.288;28.624;2023-11-21T03:09:49;15.94;;;9.78;;
60336;SDS011;46978;50.288;28.624;2023-11-21T03:10:51;17.59;;;9.90;;
60336;SDS011;46978;50.288;28.624;2023-11-21T03:11:53;16.59;;;10.54;;
60336;SDS011;46978;50.288;28.624;2023-11-21T03:12:55;20.45;;;11.50;;
60336;SDS011;46978;50.288;28.624;2023-11-21T03:13:56;18.72;;;10.79;;
60336;SDS011;46978;50.288;28.624;2023-11-21T03:14:58;18.04;;;11.06;;
60336;SDS011;46978;50.288;28.624;2023-11-21T03:15:59;16.74;;;10.52;;
60336;SDS011;46978;50.288;28.624;2023-11-21T03:17:01;20.95;;;11.31;;
60336;SDS011;46978;50.288;28.624;2023-11-21T03:18:02;18.48;;;10.86;;
60336;SDS011;46978;50.288;28.624;2023-11-21T03:19:04;20.56;;;10.34;;
60336;SDS011;46978;50.288;28.624;2023-11-21T03:20:08;17.41;;;11.21;;
60336;SDS011;46978;50.288;28.624;2023-11-21T03:21:10;20.53;;;11.21;;
60336;SDS011;46978;50.288;28.624;2023-11-21T03:22:11;14.69;;;10.25;;
60336;SDS011;46978;50.288;28.624;2023-11-21T03:23:13;19.99;;;11.19;;
60336;SDS011;46978;50.288;28.624;2023-11-21T03:24:15;21.54;;;11.14;;
60336;SDS011;46978;50.288;28.624;2023-11-21T03:25:17;19.64;;;10.54;;
60336;SDS011;46978;50.288;28.624;2023-11-21T03:26:18;20.11;;;11.68;;
60336;SDS011;46978;50.288;28.624;2023-11-21T03:27:20;18.60;;;11.16;;
60336;SDS011;46978;50.288;28.624;2023-11-21T03:28:22;17.44;;;10.24;;
60336;SDS011;46978;50.288;28.624;2023-11-21T03:29:23;17.88;;;10.07;;
60336;SDS011;46978;50.288;28.624;2023-11-21T03:30:25;15.84;;;10.59;;
60336;SDS011;46978;50.288;28.624;2023-11-21T03:31:26;18.83;;;10.31;;
60336;SDS011;46978;50.288;28.624;2023-11-21T03:32:28;16.32;;;9.79;;
60336;SDS011;46978;50.288;28.624;2023-11-21T03:33:29;14.41;;;9.46;;
60336;SDS011;46978;50.288;28.624;2023-11-21T03:34:31;17.11;;;10.49;;
60336;SDS011;46978;50.288;28.624;2023-11-21T03:35:32;17.74;;;10.66;;
60336;SDS011;46978;50.288;28.624;2023-11-21T03:36:34;18.03;;;11.27;;
60336;SDS011;46978;50.288;28.624;2023-11-21T03:37:36;16.90;;;9.68;;
60336;SDS011;46978;50.288;28.624;2023-11-21T03:38:37;16.79;;;10.44;;
60336;SDS011;46978;50.288;28.624;2023-11-21T03:39:39;13.80;;;9.46;;
60336;SDS011;46978;50.288;28.624;2023-11-21T03:40:41;15.19;;;9.79;;
60336;SDS011;46978;50.288;28.624;2023-11-21T03:41:43;16.10;;;10.59;;
60336;SDS011;46978;50.288;28.624;2023-11-21T03:42:44;16.17;;;10.51;;
60336;SDS011;46978;50.288;28.624;2023-11-21T03:43:45;21.61;;;12.14;;
60336;SDS011;46978;50.288;28.624;2023-11-21T03:44:47;16.83;;;10.45;;
60336;SDS011;46978;50.288;28.624;2023-11-21T03:45:48;19.19;;;10.96;;
60336;SDS011;46978;50.288;28.624;2023-11-21T03:46:50;22.83;;;11.98;;
60336;SDS011;46978;50.288;28.624;2023-11-21T03:47:52;15.88;;;10.46;;
60336;SDS011;46978;50.288;28.624;2023-11-21T03:48:53;17.03;;;10.20;;
60336;SDS011;46978;50.288;28.624;2023-11-21T03:49:55;14.25;;;9.29;;
60336;SDS011;46978;50.288;28.624;2023-11-21T03:50:56;19.86;;;10.66;;
60336;SDS011;46978;50.288;28.624;2023-11-21T03:51:58;15.65;;;9.94;;
60336;SDS011;46978;50.288;28.624;2023-11-21T03:53:00;18.15;;;10.72;;
60336;SDS011;46978;50.288;28.624;2023-11-21T03:54:02;20.54;;;11.14;;
60336;SDS011;46978;50.288;28.624;2023-11-21T03:55:04;18.05;;;10.86;;
60336;SDS011;46978;50.288;28.624;2023-11-21T03:56:07;19.07;;;10.95;;
60336;SDS011;46978;50.288;28.624;2023-11-21T03:57:09;21.81;;;12.54;;
60336;SDS011;46978;50.288;28.624;2023-11-21T03:58:10;19.41;;;11.60;;
60336;SDS011;46978;50.288;28.624;2023-11-21T03:59:12;17.44;;;11.49;;
60336;SDS011;46978;50.288;28.624;2023-11-21T04:00:14;23.05;;;11.51;;
60336;SDS011;46978;50.288;28.624;2023-11-21T04:01:24;21.47;;;11.66;;
60336;SDS011;46978;50.288;28.624;2023-11-21T04:02:23;20.58;;;12.45;;
60336;SDS011;46978;50.288;28.624;2023-11-21T04:03:25;21.55;;;12.59;;
60336;SDS011;46978;50.288;28.624;2023-11-21T04:04:26;22.33;;;12.96;;
60336;SDS011;46978;50.288;28.624;2023-11-21T04:05:28;26.17;;;12.93;;
60336;SDS011;46978;50.288;28.624;2023-11-21T04:06:30;24.01;;;12.05;;
60336;SDS011;46978;50.288;28.624;2023-11-21T04:07:31;20.98;;;11.80;;
60336;SDS011;46978;50.288;28.624;2023-11-21T04:08:33;22.30;;;12.21;;
60336;SDS011;46978;50.288;28.624;2023-11-21T04:09:34;22.56;;;12.97;;
60336;SDS011;46978;50.288;28.624;2023-11-21T04:10:36;23.33;;;12.84;;
60336;SDS011;46978;50.288;28.624;2023-11-21T04:11:38;21.50;;;12.10;;
60336;SDS011;46978;50.288;28.624;2023-11-21T04:12:39;24.33;;;12.55;;
60336;SDS011;46978;50.288;28.624;2023-11-21T04:13:41;23.68;;;11.67;;
60336;SDS011;46978;50.288;28.624;2023-11-21T04:14:42;21.64;;;11.61;;
60336;SDS011;46978;50.288;28.624;2023-11-21T04:15:44;21.56;;;11.80;;
60336;SDS011;46978;50.288;28.624;2023-11-21T04:16:46;25.14;;;13.26;;
60336;SDS011;46978;50.288;28.624;2023-11-21T04:19:04;24.06;;;14.17;;
60336;SDS011;46978;50.288;28.624;2023-11-21T04:20:06;29.33;;;14.03;;
60336;SDS011;46978;50.288;28.624;2023-11-21T04:21:09;22.44;;;13.75;;
60336;SDS011;46978;50.288;28.624;2023-11-21T04:22:10;21.46;;;12.80;;
60336;SDS011;46978;50.288;28.624;2023-11-21T04:23:12;22.84;;;13.01;;
60336;SDS011;46978;50.288;28.624;2023-11-21T04:24:14;23.15;;;13.19;;
60336;SDS011;46978;50.288;28.624;2023-11-21T04:25:16;24.58;;;12.79;;
60336;SDS011;46978;50.288;28.624;2023-11-21T04:26:18;19.48;;;11.86;;
60336;SDS011;46978;50.288;28.624;2023-11-21T04:27:19;18.74;;;11.99;;
60336;SDS011;46978;50.288;28.624;2023-11-21T04:28:21;20.78;;;12.66;;
60336;SDS011;46978;50.288;28.624;2023-11-21T04:29:22;19.28;;;11.72;;
60336;SDS011;46978;50.288;28.624;2023-11-21T04:30:24;23.63;;;13.50;;
60336;SDS011;46978;50.288;28.624;2023-11-21T04:31:26;20.99;;;12.82;;
60336;SDS011;46978;50.288;28.624;2023-11-21T04:32:28;20.02;;;11.78;;
60336;SDS011;46978;50.288;28.624;2023-11-21T04:33:29;23.99;;;13.23;;
60336;SDS011;46978;50.288;28.624;2023-11-21T04:34:31;20.21;;;12.14;;
60336;SDS011;46978;50.288;28.624;2023-11-21T04:35:32;20.20;;;13.22;;
60336;SDS011;46978;50.288;28.624;2023-11-21T04:36:34;20.17;;;12.44;;
60336;SDS011;46978;50.288;28.624;2023-11-21T04:37:36;22.61;;;12.53;;
60336;SDS011;46978;50.288;28.624;2023-11-21T04:38:38;20.77;;;12.97;;
60336;SDS011;46978;50.288;28.624;2023-11-21T04:39:39;21.57;;;11.42;;
60336;SDS011;46978;50.288;28.624;2023-11-21T04:40:41;20.95;;;12.62;;
60336;SDS011;46978;50.288;28.624;2023-11-21T04:41:43;22.32;;;12.82;;
60336;SDS011;46978;50.288;28.624;2023-11-21T04:42:44;24.26;;;13.73;;
60336;SDS011;46978;50.288;28.624;2023-11-21T04:43:46;19.81;;;12.00;;
60336;SDS011;46978;50.288;28.624;2023-11-21T04:44:48;20.85;;;12.66;;
60336;SDS011;46978;50.288;28.624;2023-11-21T04:45:50;22.36;;;13.14;;
60336;SDS011;46978;50.288;28.624;2023-11-21T04:46:52;22.05;;;12.19;;
60336;SDS011;46978;50.288;28.624;2023-11-21T04:47:53;20.06;;;12.16;;
60336;SDS011;46978;50.288;28.624;2023-11-21T04:48:55;24.08;;;14.25;;
60336;SDS011;46978;50.288;28.624;2023-11-21T04:49:56;22.46;;;12.80;;
60336;SDS011;46978;50.288;28.624;2023-11-21T04:50:58;24.20;;;13.93;;
60336;SDS011;46978;50.288;28.624;2023-11-21T04:52:00;25.35;;;14.24;;
60336;SDS011;46978;50.288;28.624;2023-11-21T04:53:02;24.26;;;14.14;;
60336;SDS011;46978;50.288;28.624;2023-11-21T04:54:03;22.66;;;13.92;;
60336;SDS011;46978;50.288;28.624;2023-11-21T04:55:05;25.69;;;14.75;;
60336;SDS011;46978;50.288;28.624;2023-11-21T04:56:09;24.69;;;14.66;;
60336;SDS011;46978;50.288;28.624;2023-11-21T04:57:10;22.19;;;13.75;;
60336;SDS011;46978;50.288;28.624;2023-11-21T04:58:12;22.67;;;12.66;;
60336;SDS011;46978;50.288;28.624;2023-11-21T04:59:14;19.57;;;12.64;;
60336;SDS011;46978;50.288;28.624;2023-11-21T05:00:17;23.09;;;13.37;;
60336;SDS011;46978;50.288;28.624;2023-11-21T05:01:19;25.39;;;14.53;;
60336;SDS011;46978;50.288;28.624;2023-11-21T05:02:20;25.59;;;14.84;;
60336;SDS011;46978;50.288;28.624;2023-11-21T05:03:22;23.16;;;13.89;;
60336;SDS011;46978;50.288;28.624;2023-11-21T05:04:23;25.66;;;14.43;;
60336;SDS011;46978;50.288;28.624;2023-11-21T05:05:25;23.77;;;14.48;;
60336;SDS011;46978;50.288;28.624;2023-11-21T05:06:27;25.54;;;15.68;;
60336;SDS011;46978;50.288;28.624;2023-11-21T05:07:28;25.10;;;15.17;;
60336;SDS011;46978;50.288;28.624;2023-11-21T05:08:29;25.47;;;15.89;;
60336;SDS011;46978;50.288;28.624;2023-11-21T05:09:31;29.39;;;16.72;;
60336;SDS011;46978;50.288;28.624;2023-11-21T05:10:33;28.20;;;15.85;;
60336;SDS011;46978;50.288;28.624;2023-11-21T05:11:35;28.29;;;16.50;;
60336;SDS011;46978;50.288;28.624;2023-11-21T05:12:36;28.59;;;16.49;;
60336;SDS011;46978;50.288;28.624;2023-11-21T05:13:38;29.11;;;17.57;;
60336;SDS011;46978;50.288;28.624;2023-11-21T05:14:40;27.01;;;17.24;;
60336;SDS011;46978;50.288;28.624;2023-11-21T05:15:41;27.99;;;17.06;;
60336;SDS011;46978;50.288;28.624;2023-11-21T05:16:44;33.33;;;17.41;;
60336;SDS011;46978;50.288;28.624;2023-11-21T05:17:45;28.99;;;16.86;;
60336;SDS011;46978;50.288;28.624;2023-11-21T05:18:47;28.14;;;16.63;;
60336;SDS011;46978;50.288;28.624;2023-11-21T05:19:49;26.15;;;16.81;;
60336;SDS011;46978;50.288;28.624;2023-11-21T05:20:50;31.31;;;17.01;;
60336;SDS011;46978;50.288;28.624;2023-11-21T05:21:52;30.01;;;18.13;;
60336;SDS011;46978;50.288;28.624;2023-11-21T05:22:53;30.96;;;17.19;;
60336;SDS011;46978;50.288;28.624;2023-11-21T05:23:55;27.54;;;17.04;;
60336;SDS011;46978;50.288;28.624;2023-11-21T05:24:57;31.54;;;19.31;;
60336;SDS011;46978;50.288;28.624;2023-11-21T05:25:58;30.97;;;17.61;;
60336;SDS011;46978;50.288;28.624;2023-11-21T05:27:00;29.75;;;17.69;;
60336;SDS011;46978;50.288;28.624;2023-11-21T05:28:01;27.19;;;16.94;;
60336;SDS011;46978;50.288;28.624;2023-11-21T05:29:03;30.69;;;17.05;;
60336;SDS011;46978;50.288;28.624;2023-11-21T05:30:06;31.33;;;16.94;;
60336;SDS011;46978;50.288;28.624;2023-11-21T05:31:08;29.89;;;17.20;;
60336;SDS011;46978;50.288;28.624;2023-11-21T05:32:09;30.76;;;17.14;;
60336;SDS011;46978;50.288;28.624;2023-11-21T05:33:11;28.26;;;16.25;;
60336;SDS011;46978;50.288;28.624;2023-11-21T05:34:12;28.71;;;15.57;;
60336;SDS011;46978;50.288;28.624;2023-11-21T05:35:14;27.66;;;15.83;;
60336;SDS011;46978;50.288;28.624;2023-11-21T05:36:16;45.75;;;23.43;;
60336;SDS011;46978;50.288;28.624;2023-11-21T05:37:17;43.51;;;24.16;;
60336;SDS011;46978;50.288;28.624;2023-11-21T05:38:19;66.24;;;31.43;;
60336;SDS011;46978;50.288;28.624;2023-11-21T05:39:21;64.91;;;31.42;;
60336;SDS011;46978;50.288;28.624;2023-11-21T05:40:22;45.31;;;23.96;;
60336;SDS011;46978;50.288;28.624;2023-11-21T05:41:24;49.77;;;28.13;;
60336;SDS011;46978;50.288;28.624;2023-11-21T05:42:25;45.11;;;23.52;;
60336;SDS011;46978;50.288;28.624;2023-11-21T05:43:27;30.12;;;18.98;;
60336;SDS011;46978;50.288;28.624;2023-11-21T05:44:28;57.00;;;30.93;;
60336;SDS011;46978;50.288;28.624;2023-11-21T05:45:30;50.88;;;28.59;;
60336;SDS011;46978;50.288;28.624;2023-11-21T05:46:32;45.94;;;27.19;;
60336;SDS011;46978;50.288;28.624;2023-11-21T05:47:33;47.56;;;27.49;;
60336;SDS011;46978;50.288;28.624;2023-11-21T05:48:35;34.69;;;19.61;;
60336;SDS011;46978;50.288;28.624;2023-11-21T05:49:36;45.36;;;29.70;;
60336;SDS011;46978;50.288;28.624;2023-11-21T05:50:38;38.41;;;22.96;;
60336;SDS011;46978;50.288;28.624;2023-11-21T05:51:40;32.03;;;19.07;;
60336;SDS011;46978;50.288;28.624;2023-11-21T05:52:42;25.83;;;16.09;;
60336;SDS011;46978;50.288;28.624;2023-11-21T05:53:45;25.98;;;16.10;;
60336;SDS011;46978;50.288;28.624;2023-11-21T05:54:46;29.94;;;19.03;;
60336;SDS011;46978;50.288;28.624;2023-11-21T05:55:48;28.94;;;18.54;;
60336;SDS011;46978;50.288;28.624;2023-11-21T05:56:50;31.16;;;18.19;;
60336;SDS011;46978;50.288;28.624;2023-11-21T05:57:51;40.30;;;24.15;;
60336;SDS011;46978;50.288;28.624;2023-11-21T05:58:53;50.42;;;29.73;;
60336;SDS011;46978;50.288;28.624;2023-11-21T05:59:54;42.62;;;24.74;;